Time;durP1;ratioP1;P1;durP2;ratioP2;P2;SDS_P1;SDS_P2;PMS_P1;PMS_P2;Temp;Humidity;BMP_temperature;BMP_pressure;BME280_temperature;BME280_humidity;BME280_pressure;Samples;Min_cycle;Max_cycle;Signal;HPM_P1;HPM_P2
2023/06/22 00:01:47;;;;;;;7.90;6.95;;;;;;;24.59;53.39;99671.31;5093203;28;20427;-74
2023/06/22 00:04:13;;;;;;;7.72;7.03;;;;;;;24.98;53.45;99754.59;5093102;28;20024;-77
2023/06/22 00:06:38;;;;;;;7.30;6.70;;;;;;;24.75;53.67;99731.56;5092899;28;20416;-77
2023/06/22 00:09:03;;;;;;;7.13;6.53;;;;;;;24.60;53.85;99726.91;5092873;28;20024;-77
2023/06/22 00:11:29;;;;;;;7.03;6.35;;;;;;;24.64;54.23;99728.00;5092881;28;20377;-76
2023/06/22 00:13:54;;;;;;;7.18;6.53;;;;;;;24.62;54.36;99735.56;5091542;28;20012;-77
2023/06/22 00:16:20;;;;;;;7.60;6.90;;;;;;;24.26;54.32;99696.78;5092750;28;20020;-76
2023/06/22 00:18:47;;;;;;;8.95;7.57;;;;;;;24.23;53.84;99699.19;5092633;28;20089;-76
2023/06/22 00:21:13;;;;;;;8.90;7.43;;;;;;;24.61;54.07;99773.63;5091763;28;20053;-77
2023/06/22 00:23:38;;;;;;;8.23;7.53;;;;;;;24.17;54.10;99724.53;5092663;28;20028;-76
2023/06/22 00:26:04;;;;;;;7.88;7.13;;;;;;;24.12;54.50;99716.41;5092443;28;20541;-77
2023/06/22 00:28:30;;;;;;;7.93;7.32;;;;;;;24.02;54.68;99717.19;5092525;28;20449;-74
2023/06/22 00:30:56;;;;;;;7.82;7.00;;;;;;;23.94;55.02;99737.38;5092425;28;20023;-76
2023/06/22 00:33:21;;;;;;;8.70;7.80;;;;;;;23.87;55.20;99722.50;5092690;28;20420;-76
2023/06/22 00:35:46;;;;;;;8.23;7.45;;;;;;;23.80;55.15;99709.25;5092647;28;20024;-76
2023/06/22 00:38:12;;;;;;;10.05;6.70;;;;;;;24.16;55.27;99779.56;5091297;28;20035;-76
2023/06/22 00:40:37;;;;;;;8.15;7.35;;;;;;;24.28;55.02;99781.00;5091418;28;20027;-76
2023/06/22 00:43:04;;;;;;;8.40;7.32;;;;;;;24.26;55.06;99775.03;5092475;28;20032;-76
2023/06/22 00:45:30;;;;;;;7.78;7.13;;;;;;;23.90;54.99;99719.28;5092670;28;20024;-76
2023/06/22 00:47:59;;;;;;;7.70;7.00;;;;;;;24.32;54.82;99771.31;5092519;28;20032;-76
2023/06/22 00:50:28;;;;;;;7.65;6.88;;;;;;;24.44;54.86;99781.91;5092231;28;20027;-76
2023/06/22 00:52:59;;;;;;;7.75;6.93;;;;;;;24.49;54.70;99792.72;5090557;28;20123;-76
2023/06/22 00:55:28;;;;;;;7.55;6.85;;;;;;;24.13;54.83;99728.84;5090911;28;20505;-76
2023/06/22 00:57:56;;;;;;;8.40;7.70;;;;;;;24.51;55.00;99785.16;5092220;28;20063;-76
2023/06/22 01:00:25;;;;;;;8.73;7.40;;;;;;;24.51;54.74;99785.16;5092081;28;20035;-76
2023/06/22 01:02:52;;;;;;;9.32;6.85;;;;;;;24.31;54.86;99750.00;5092203;28;20523;-76
2023/06/22 01:05:19;;;;;;;8.25;7.45;;;;;;;24.18;54.74;99743.16;5091951;28;20069;-76
2023/06/22 01:07:54;;;;;;;8.27;7.43;;;;;;;23.88;54.97;99684.47;5090771;28;20028;-76
2023/06/22 01:10:41;;;;;;;8.27;7.45;;;;;;;24.44;54.99;99786.50;5090813;28;20412;-77
2023/06/22 01:13:40;;;;;;;8.13;7.35;;;;;;;24.45;55.39;99796.22;5091944;28;20028;-76
2023/06/22 01:16:12;;;;;;;8.18;7.38;;;;;;;24.46;55.25;99800.53;5091860;28;20512;-76
2023/06/22 01:18:42;;;;;;;8.88;7.82;;;;;;;24.09;55.45;99744.72;5091658;28;20028;-76
2023/06/22 01:21:12;;;;;;;10.90;8.20;;;;;;;24.26;55.70;99793.94;5092297;28;20034;-76
2023/06/22 01:23:59;;;;;;;8.32;7.63;;;;;;;24.35;56.13;99803.19;5092270;28;20047;-76
2023/06/22 01:27:02;;;;;;;9.82;8.70;;;;;;;24.29;56.01;99796.13;5090510;28;20039;-76
2023/06/22 01:29:30;;;;;;;8.35;7.60;;;;;;;23.92;56.30;99741.41;5029967;28;20498;-76
2023/06/22 01:31:57;;;;;;;9.20;8.10;;;;;;;24.20;56.22;99789.56;5079561;28;20054;-76
2023/06/22 01:34:23;;;;;;;8.95;8.15;;;;;;;23.74;56.32;99711.06;5091840;28;20074;-77
2023/06/22 01:36:51;;;;;;;10.13;9.13;;;;;;;23.59;56.36;99680.50;5091643;28;20032;-76
2023/06/22 01:39:17;;;;;;;11.13;8.43;;;;;;;23.94;56.48;99736.56;5091587;28;20031;-76
2023/06/22 01:41:43;;;;;;;11.85;9.30;;;;;;;23.87;56.74;99727.88;5091609;28;20440;-77
2023/06/22 01:44:09;;;;;;;10.02;8.52;;;;;;;23.73;56.81;99719.41;5092043;28;20039;-76
2023/06/22 01:46:36;;;;;;;10.23;8.95;;;;;;;23.82;56.61;99723.28;5090405;28;20028;-77
2023/06/22 01:49:06;;;;;;;10.95;8.93;;;;;;;24.08;56.79;99764.69;5091606;28;20028;-77
2023/06/22 01:51:32;;;;;;;10.05;8.90;;;;;;;24.07;56.76;99773.84;5091305;28;20028;-77
2023/06/22 01:53:57;;;;;;;11.18;9.20;;;;;;;24.03;57.12;99773.56;5091260;28;20038;-76
2023/06/22 01:56:22;;;;;;;9.77;8.85;;;;;;;24.02;57.05;99771.94;5091101;28;20016;-76
2023/06/22 01:59:09;;;;;;;10.95;9.38;;;;;;;24.02;57.22;99771.94;5090953;28;20052;-76
2023/06/22 02:01:57;;;;;;;10.38;9.20;;;;;;;24.00;57.29;99776.78;5089998;28;20085;-76
2023/06/22 02:05:09;;;;;;;10.90;9.60;;;;;;;24.00;57.33;99771.38;5091239;28;20028;-76
2023/06/22 02:07:44;;;;;;;10.60;9.50;;;;;;;23.94;57.27;99780.50;5076609;28;20044;-77
2023/06/22 02:10:13;;;;;;;12.05;10.07;;;;;;;23.63;57.18;99735.50;5091206;28;20032;-76
2023/06/22 02:12:41;;;;;;;10.77;9.75;;;;;;;23.58;57.29;99730.09;5093768;28;20024;-76
2023/06/22 02:15:07;;;;;;;12.35;9.63;;;;;;;23.44;57.72;99727.00;5094382;28;20416;-78
2023/06/22 02:17:33;;;;;;;11.65;10.48;;;;;;;23.81;57.64;99786.38;5095541;28;20031;-76
2023/06/22 02:19:59;;;;;;;11.48;10.32;;;;;;;23.80;57.69;99798.22;5095351;28;20039;-75
2023/06/22 02:22:24;;;;;;;13.25;11.55;;;;;;;23.80;57.52;99800.91;5095285;28;20024;-75
2023/06/22 02:24:50;;;;;;;11.63;10.52;;;;;;;23.59;57.48;99781.03;5095140;28;20024;-75
2023/06/22 02:27:15;;;;;;;11.20;10.20;;;;;;;23.45;57.65;99753.69;5095181;28;20498;-75
2023/06/22 02:29:40;;;;;;;12.60;9.82;;;;;;;23.70;57.69;99796.22;5094966;28;20028;-74
2023/06/22 02:32:06;;;;;;;11.98;10.88;;;;;;;23.39;57.73;99743.13;5095399;28;20035;-76
2023/06/22 02:34:33;;;;;;;12.23;11.10;;;;;;;23.60;57.50;99763.81;5095808;28;20020;-74
2023/06/22 02:37:02;;;;;;;12.25;11.00;;;;;;;23.76;57.82;99805.97;5096105;28;20061;-75
2023/06/22 02:39:27;;;;;;;12.40;11.20;;;;;;;23.26;57.75;99738.97;5094962;28;20031;-75
2023/06/22 02:41:54;;;;;;;11.65;10.65;;;;;;;23.73;57.94;99814.59;5094877;28;20032;-76
2023/06/22 02:44:20;;;;;;;12.60;9.98;;;;;;;23.75;58.01;99814.31;5094842;28;20026;-74
2023/06/22 02:46:47;;;;;;;12.55;11.02;;;;;;;23.58;57.87;99784.81;5094526;28;20404;-76
2023/06/22 02:49:12;;;;;;;11.05;9.65;;;;;;;23.76;57.74;99814.06;5093314;28;20089;-76
2023/06/22 02:51:39;;;;;;;14.57;11.25;;;;;;;23.54;57.95;99780.16;5094340;28;20451;-76
2023/06/22 02:54:06;;;;;;;11.63;10.38;;;;;;;23.40;57.85;99780.59;5094284;28;20020;-76
2023/06/22 02:56:31;;;;;;;11.80;10.38;;;;;;;23.22;57.80;99735.16;5094521;28;20028;-76
2023/06/22 02:59:01;;;;;;;13.55;11.52;;;;;;;23.43;57.96;99771.19;5092743;28;20048;-76
2023/06/22 03:01:39;;;;;;;12.10;10.40;;;;;;;23.72;57.68;99821.03;5092923;28;20052;-76
2023/06/22 03:04:05;;;;;;;12.55;10.88;;;;;;;23.67;58.06;99817.50;5094224;28;20496;-76
2023/06/22 03:06:30;;;;;;;11.25;10.02;;;;;;;23.28;57.90;99761.09;5092758;28;20081;-76
2023/06/22 03:09:00;;;;;;;10.77;9.77;;;;;;;22.74;58.00;99692.91;5094026;28;20073;-76
2023/06/22 03:11:26;;;;;;;10.82;9.75;;;;;;;23.39;58.05;99811.28;5094124;28;20572;-76
2023/06/22 03:13:52;;;;;;;11.70;10.30;;;;;;;23.39;58.16;99837.44;5094073;28;20099;-76
2023/06/22 03:16:18;;;;;;;11.65;10.35;;;;;;;22.87;58.03;99751.75;5093927;28;20404;-75
2023/06/22 03:18:44;;;;;;;12.82;10.77;;;;;;;23.27;58.29;99818.72;5093822;28;20028;-76
2023/06/22 03:21:09;;;;;;;10.65;9.52;;;;;;;23.05;58.34;99808.00;5092648;28;20031;-76
2023/06/22 03:23:35;;;;;;;11.40;9.55;;;;;;;22.77;58.38;99755.13;5092748;28;20051;-77
2023/06/22 03:26:01;;;;;;;11.98;9.45;;;;;;;22.78;58.13;99755.94;5093627;28;20035;-76
2023/06/22 03:28:26;;;;;;;11.57;9.77;;;;;;;23.19;58.18;99816.50;5093681;28;20055;-76
2023/06/22 03:30:52;;;;;;;13.80;9.77;;;;;;;22.94;58.23;99775.78;5093564;28;20019;-76
2023/06/22 03:33:17;;;;;;;11.10;9.95;;;;;;;23.17;58.02;99812.41;5092243;28;20023;-76
2023/06/22 03:35:42;;;;;;;10.48;9.43;;;;;;;23.14;58.05;99819.13;5093650;28;20521;-76
2023/06/22 03:38:08;;;;;;;11.15;9.85;;;;;;;22.82;58.18;99765.97;5093552;28;20020;-76
2023/06/22 03:40:33;;;;;;;14.73;10.07;;;;;;;22.66;57.99;99756.09;5093420;28;20564;-76
2023/06/22 03:42:58;;;;;;;11.00;9.45;;;;;;;23.07;58.03;99813.94;5091849;28;20024;-76
2023/06/22 03:45:24;;;;;;;10.63;9.63;;;;;;;22.66;57.80;99756.09;5093202;28;20020;-76
2023/06/22 03:47:49;;;;;;;11.77;9.98;;;;;;;22.66;57.71;99756.09;5093473;28;20069;-76
2023/06/22 03:50:15;;;;;;;10.55;9.38;;;;;;;23.07;57.78;99824.72;5093376;28;20026;-76
2023/06/22 03:52:40;;;;;;;11.48;9.77;;;;;;;22.72;57.90;99773.91;5093586;28;20106;-75
2023/06/22 03:55:07;;;;;;;10.63;9.52;;;;;;;22.60;57.63;99754.41;5093146;28;20024;-76
2023/06/22 03:57:33;;;;;;;10.43;9.32;;;;;;;23.05;57.85;99828.72;5093059;28;20100;-78
2023/06/22 03:59:59;;;;;;;13.40;10.50;;;;;;;23.03;57.96;99831.66;5091772;28;20471;-74
2023/06/22 04:02:25;;;;;;;11.82;9.80;;;;;;;22.71;57.95;99776.84;5093135;28;20099;-77
2023/06/22 04:04:50;;;;;;;14.35;11.25;;;;;;;22.95;58.06;99810.56;5092917;28;20146;-76
2023/06/22 04:07:15;;;;;;;12.05;9.75;;;;;;;23.06;57.87;99827.66;5092734;28;20027;-76
2023/06/22 04:09:41;;;;;;;11.75;10.65;;;;;;;22.90;57.90;99799.72;5092785;28;20077;-77
2023/06/22 04:12:07;;;;;;;12.32;11.07;;;;;;;23.03;57.88;99807.41;5092723;28;20408;-76
2023/06/22 04:14:32;;;;;;;11.45;10.05;;;;;;;22.48;57.96;99716.03;5092669;28;20030;-77
2023/06/22 04:16:58;;;;;;;15.05;11.00;;;;;;;23.24;57.73;99823.81;5092644;28;20050;-76
2023/06/22 04:19:24;;;;;;;12.25;10.85;;;;;;;23.20;57.54;99812.72;5092613;28;20032;-76
2023/06/22 04:21:49;;;;;;;13.50;11.63;;;;;;;23.29;57.71;99835.44;5092723;28;20488;-76
2023/06/22 04:24:15;;;;;;;13.40;11.82;;;;;;;22.77;57.80;99757.81;5092844;28;20016;-77
2023/06/22 04:26:42;;;;;;;12.15;10.95;;;;;;;22.80;57.57;99746.56;5091759;28;20023;-76
2023/06/22 04:29:08;;;;;;;13.68;11.32;;;;;;;23.00;57.74;99783.69;5092709;28;20024;-76
2023/06/22 04:31:37;;;;;;;13.93;11.63;;;;;;;23.31;57.47;99824.41;5092293;28;20024;-77
2023/06/22 04:34:08;;;;;;;11.93;10.60;;;;;;;23.44;58.03;99837.47;5091860;28;20405;-76
2023/06/22 04:36:37;;;;;;;11.85;10.77;;;;;;;23.28;57.83;99806.06;5091214;28;20401;-76
2023/06/22 04:39:07;;;;;;;14.48;11.70;;;;;;;23.58;57.44;99836.03;5092416;28;20511;-76
2023/06/22 04:41:41;;;;;;;13.20;11.80;;;;;;;23.60;57.10;99819.59;5091012;28;20067;-76
2023/06/22 04:44:23;;;;;;;13.25;11.80;;;;;;;23.32;57.20;99772.97;5092412;28;20031;-76
2023/06/22 04:46:59;;;;;;;12.63;11.30;;;;;;;23.67;57.13;99817.50;5092501;28;20144;-76
2023/06/22 04:49:32;;;;;;;12.90;11.52;;;;;;;23.44;57.04;99770.91;5092159;28;20035;-77
2023/06/22 04:51:59;;;;;;;12.60;11.32;;;;;;;24.00;56.79;99843.41;5092153;28;20035;-76
2023/06/22 04:54:24;;;;;;;16.13;12.20;;;;;;;23.86;56.90;99816.06;5092142;28;20035;-77
2023/06/22 04:56:56;;;;;;;12.27;11.07;;;;;;;24.06;56.91;99845.06;5090682;28;20020;-76
2023/06/22 04:59:30;;;;;;;12.82;11.60;;;;;;;23.97;56.84;99817.75;5092203;28;20024;-76
2023/06/22 05:02:00;;;;;;;13.90;12.18;;;;;;;23.89;56.82;99803.94;5092360;28;20027;-76
2023/06/22 05:04:27;;;;;;;13.80;12.43;;;;;;;24.25;57.00;99861.66;5092291;28;20080;-77
2023/06/22 05:06:54;;;;;;;12.82;11.73;;;;;;;24.25;56.99;99854.38;5093456;28;20024;-77
2023/06/22 05:09:20;;;;;;;14.32;12.93;;;;;;;23.77;57.04;99774.44;5091307;28;20062;-76
2023/06/22 05:11:46;;;;;;;14.45;12.80;;;;;;;24.23;56.84;99831.41;5091711;28;20031;-76
2023/06/22 05:14:12;;;;;;;14.85;12.55;;;;;;;24.46;57.27;99866.13;5092052;28;20479;-76
2023/06/22 05:16:38;;;;;;;13.80;12.63;;;;;;;24.20;57.06;99807.66;5090323;28;20126;-76
2023/06/22 05:19:04;;;;;;;14.35;12.98;;;;;;;24.51;56.99;99846.44;5091555;28;20048;-76
2023/06/22 05:21:30;;;;;;;14.50;12.57;;;;;;;24.68;57.06;99868.69;5090628;28;20027;-76
2023/06/22 05:23:59;;;;;;;13.75;12.35;;;;;;;24.65;56.78;99851.13;5091931;28;20103;-76
2023/06/22 05:26:26;;;;;;;13.20;11.95;;;;;;;24.82;57.08;99855.53;5091881;28;20020;-76
2023/06/22 05:28:52;;;;;;;11.95;10.63;;;;;;;24.61;56.54;99814.94;5095046;28;20020;-76
2023/06/22 05:31:19;;;;;;;11.82;10.68;;;;;;;24.78;56.04;99847.16;5093464;28;20397;-76
2023/06/22 05:33:46;;;;;;;10.93;9.95;;;;;;;24.97;55.68;99866.41;5091628;28;20012;-76
2023/06/22 05:36:12;;;;;;;11.93;10.73;;;;;;;24.67;55.28;99821.97;5091338;28;20073;-77
2023/06/22 05:38:38;;;;;;;13.05;11.75;;;;;;;24.93;54.96;99868.00;5090080;28;20020;-75
2023/06/22 05:41:04;;;;;;;11.90;10.70;;;;;;;24.64;55.04;99819.81;5091189;28;20024;-74
2023/06/22 05:43:30;;;;;;;12.05;10.88;;;;;;;25.10;54.41;99873.22;5091322;28;20031;-75
2023/06/22 05:45:55;;;;;;;11.40;10.30;;;;;;;24.73;54.49;99819.31;5091176;28;20382;-77
2023/06/22 05:48:21;;;;;;;12.32;11.18;;;;;;;24.71;54.23;99792.56;5095127;28;20030;-75
2023/06/22 05:50:46;;;;;;;11.35;10.25;;;;;;;25.06;54.28;99851.31;5095650;28;20044;-75
2023/06/22 05:53:12;;;;;;;13.27;12.00;;;;;;;24.93;54.19;99822.06;5094092;28;20020;-75
2023/06/22 05:55:37;;;;;;;12.77;11.43;;;;;;;25.12;54.13;99850.25;5095656;28;20404;-75
2023/06/22 05:58:05;;;;;;;11.65;10.55;;;;;;;25.06;54.24;99812.69;5095114;28;20075;-76
2023/06/22 06:00:31;;;;;;;11.40;10.38;;;;;;;25.01;54.11;99803.50;5091727;28;20029;-75
2023/06/22 06:02:56;;;;;;;14.40;12.93;;;;;;;25.05;53.94;99790.25;5073779;28;20394;-76
2023/06/22 06:05:23;;;;;;;13.68;12.27;;;;;;;25.57;53.82;99868.50;5074484;28;20413;-75
2023/06/22 06:07:49;;;;;;;14.43;12.30;;;;;;;25.54;53.68;99852.81;5074661;28;20031;-76
2023/06/22 06:10:15;;;;;;;14.20;12.73;;;;;;;25.22;53.96;99795.44;5075131;28;20024;-76
2023/06/22 06:12:40;;;;;;;16.92;15.25;;;;;;;25.67;53.99;99862.31;5075703;28;20031;-76
2023/06/22 06:15:06;;;;;;;17.92;16.08;;;;;;;25.58;53.05;99842.25;5074648;28;20023;-77
2023/06/22 06:17:31;;;;;;;14.15;12.60;;;;;;;25.70;52.58;99850.94;5073216;28;20103;-77
2023/06/22 06:19:59;;;;;;;13.27;12.02;;;;;;;25.25;52.36;99768.66;5074841;28;20048;-77
2023/06/22 06:22:24;;;;;;;12.70;11.60;;;;;;;25.83;51.96;99855.00;5074802;28;20016;-76
2023/06/22 06:24:49;;;;;;;13.15;11.85;;;;;;;25.28;52.11;99773.56;5074339;28;20025;-76
2023/06/22 06:27:17;;;;;;;14.63;13.02;;;;;;;25.34;52.05;99783.31;5074000;28;20029;-77
2023/06/22 06:29:45;;;;;;;13.70;12.50;;;;;;;25.55;51.92;99797.66;5086479;28;20030;-77
2023/06/22 06:32:11;;;;;;;13.15;11.90;;;;;;;25.91;51.83;99849.06;5094739;28;20020;-74
2023/06/22 06:34:36;;;;;;;12.93;11.50;;;;;;;25.76;51.72;99812.00;5093063;28;20020;-77
2023/06/22 06:37:02;;;;;;;13.65;12.35;;;;;;;25.49;51.38;99755.47;5093307;28;20020;-75
2023/06/22 06:39:27;;;;;;;12.15;10.95;;;;;;;25.90;51.53;99818.47;5092730;28;20034;-74
2023/06/22 06:41:52;;;;;;;12.85;11.55;;;;;;;26.08;50.99;99836.09;5089306;28;20027;-77
2023/06/22 06:44:18;;;;;;;12.40;11.23;;;;;;;25.71;50.89;99776.84;5076627;28;20020;-75
2023/06/22 06:46:44;;;;;;;12.57;11.23;;;;;;;26.15;50.97;99844.72;5073779;28;20214;-76
2023/06/22 06:49:09;;;;;;;12.20;11.13;;;;;;;26.20;50.68;99833.91;5073843;28;20020;-75
2023/06/22 06:51:34;;;;;;;12.90;11.38;;;;;;;26.26;50.69;99837.41;5077454;28;20054;-78
2023/06/22 06:54:00;;;;;;;12.32;11.15;;;;;;;26.00;50.83;99784.38;5061695;28;20418;-75
2023/06/22 06:56:25;;;;;;;13.88;12.75;;;;;;;26.11;50.78;99791.41;5059755;28;20016;-77
2023/06/22 06:58:51;;;;;;;13.60;12.27;;;;;;;26.23;50.72;99802.75;5074232;28;20542;-77
2023/06/22 07:01:17;;;;;;;13.05;11.85;;;;;;;26.28;50.69;99808.16;5073099;28;20088;-76
2023/06/22 07:03:42;;;;;;;15.85;13.27;;;;;;;26.15;51.13;99765.44;5073020;28;20032;-76
2023/06/22 07:06:08;;;;;;;13.00;11.90;;;;;;;26.66;51.05;99835.69;5076169;28;20024;-76
2023/06/22 07:08:35;;;;;;;12.13;11.05;;;;;;;26.33;50.65;99774.88;5062137;28;20027;-77
2023/06/22 07:11:00;;;;;;;12.43;11.07;;;;;;;26.79;49.99;99848.66;5083723;28;20016;-76
2023/06/22 07:13:26;;;;;;;12.18;11.00;;;;;;;26.46;49.72;99793.25;5079159;28;20042;-77
2023/06/22 07:15:51;;;;;;;11.27;10.18;;;;;;;26.63;49.33;99809.97;5073319;28;20020;-76
2023/06/22 07:18:17;;;;;;;10.35;9.45;;;;;;;26.44;48.70;99779.16;5074252;28;20021;-77
2023/06/22 07:20:42;;;;;;;11.40;10.35;;;;;;;26.63;48.37;99799.13;5075862;28;20460;-76
2023/06/22 07:23:07;;;;;;;12.05;11.05;;;;;;;26.60;48.62;99788.84;5079783;28;20500;-76
2023/06/22 07:25:33;;;;;;;10.70;9.73;;;;;;;26.86;48.16;99822.91;5088755;28;20404;-75
2023/06/22 07:28:01;;;;;;;10.82;9.93;;;;;;;27.12;47.86;99856.13;5076078;28;20039;-76
2023/06/22 07:30:28;;;;;;;11.68;10.65;;;;;;;27.13;47.70;99857.75;5084832;28;20504;-75
2023/06/22 07:32:54;;;;;;;11.70;10.60;;;;;;;27.12;47.71;99850.69;5072760;28;20031;-76
2023/06/22 07:35:19;;;;;;;12.45;11.35;;;;;;;27.13;47.83;99851.50;5070855;28;20020;-76
2023/06/22 07:37:45;;;;;;;12.82;11.73;;;;;;;27.00;47.97;99815.00;5073189;28;20506;-76
2023/06/22 07:40:11;;;;;;;11.98;10.98;;;;;;;27.32;47.99;99854.38;5075263;28;20112;-75
2023/06/22 07:42:36;;;;;;;12.52;11.43;;;;;;;27.05;47.78;99803.31;5072898;28;20027;-75
2023/06/22 07:45:04;;;;;;;10.77;9.77;;;;;;;27.49;47.62;99854.81;5078497;28;20023;-77
2023/06/22 07:47:29;;;;;;;12.95;11.75;;;;;;;27.29;47.42;99809.66;5072526;28;20416;-76
2023/06/22 07:50:00;;;;;;;12.65;11.55;;;;;;;27.67;47.54;99856.91;5073059;28;20017;-76
2023/06/22 07:52:26;;;;;;;12.30;11.15;;;;;;;27.72;47.62;99856.88;5072558;28;20107;-77
2023/06/22 07:54:52;;;;;;;11.65;10.55;;;;;;;27.66;47.50;99841.72;5071172;28;20513;-76
2023/06/22 07:57:17;;;;;;;12.05;10.90;;;;;;;27.52;46.93;99802.75;5069969;28;20060;-77
2023/06/22 07:59:42;;;;;;;12.55;11.30;;;;;;;27.49;46.81;99787.00;5070903;28;20409;-76
2023/06/22 08:02:09;;;;;;;11.05;10.05;;;;;;;27.98;46.86;99856.66;5074279;28;20094;-75
2023/06/22 08:04:34;;;;;;;13.02;11.93;;;;;;;28.01;46.65;99853.38;5073672;28;20020;-77
2023/06/22 08:07:01;;;;;;;13.38;12.18;;;;;;;28.17;46.51;99850.22;5072517;28;20054;-76
2023/06/22 08:09:32;;;;;;;11.57;10.55;;;;;;;27.91;46.05;99802.69;5072188;28;20032;-76
2023/06/22 08:11:58;;;;;;;11.93;10.82;;;;;;;28.29;45.83;99860.75;5073147;28;20100;-77
2023/06/22 08:14:27;;;;;;;13.45;12.07;;;;;;;28.33;45.62;99850.13;5072691;28;20062;-76
2023/06/22 08:16:52;;;;;;;11.43;9.65;;;;;;;27.84;45.65;99766.94;5072331;28;20103;-77
2023/06/22 08:19:18;;;;;;;12.80;11.60;;;;;;;28.42;45.48;99851.94;5072278;28;20572;-77
2023/06/22 08:21:43;;;;;;;12.05;11.05;;;;;;;28.50;45.10;99841.53;5072152;28;20031;-76
2023/06/22 08:24:09;;;;;;;14.13;10.63;;;;;;;28.23;45.30;99807.56;5072015;28;20476;-77
2023/06/22 08:26:36;;;;;;;10.20;9.27;;;;;;;28.38;44.70;99804.72;5070247;28;20025;-75
2023/06/22 08:29:04;;;;;;;12.77;11.52;;;;;;;28.67;44.93;99820.94;5070370;28;20107;-78
2023/06/22 08:31:31;;;;;;;12.35;11.15;;;;;;;28.55;44.51;99798.00;5070169;28;20016;-77
2023/06/22 08:33:57;;;;;;;12.30;10.00;;;;;;;28.69;44.18;99810.59;5071840;28;20099;-77
2023/06/22 08:36:22;;;;;;;11.50;10.48;;;;;;;28.58;44.15;99789.25;5084443;28;20128;-77
2023/06/22 08:38:51;;;;;;;11.13;10.02;;;;;;;28.96;43.71;99836.34;5092031;28;20054;-76
2023/06/22 08:41:17;;;;;;;11.73;9.90;;;;;;;28.91;43.14;99809.25;5092012;28;20098;-78
2023/06/22 08:43:44;;;;;;;9.95;9.05;;;;;;;29.12;42.76;99817.94;5078593;28;20031;-77
2023/06/22 08:46:09;;;;;;;10.77;9.85;;;;;;;29.29;42.20;99826.41;5066682;28;20052;-75
2023/06/22 08:48:35;;;;;;;10.82;8.20;;;;;;;29.08;42.16;99787.81;5070207;28;20466;-76
2023/06/22 08:51:00;;;;;;;10.95;9.32;;;;;;;29.36;42.08;99811.31;5080134;28;20098;-77
2023/06/22 08:53:26;;;;;;;9.98;9.07;;;;;;;29.17;42.11;99771.66;5072750;28;20016;-77
2023/06/22 08:55:51;;;;;;;10.63;9.60;;;;;;;29.43;41.59;99794.66;5075145;28;20163;-76
2023/06/22 08:58:18;;;;;;;9.75;8.75;;;;;;;29.44;41.06;99800.91;5069358;28;20581;-77
2023/06/22 09:00:47;;;;;;;10.75;9.75;;;;;;;29.76;40.99;99813.75;5074717;28;20024;-75
2023/06/22 09:03:12;;;;;;;12.55;10.77;;;;;;;29.89;40.96;99824.66;5068973;28;20432;-76
2023/06/22 09:05:38;;;;;;;10.20;9.25;;;;;;;29.77;40.41;99777.25;5070670;28;20025;-77
2023/06/22 09:08:03;;;;;;;9.35;8.52;;;;;;;29.74;40.01;99748.72;5070342;28;20034;-76
2023/06/22 09:10:29;;;;;;;10.18;9.38;;;;;;;29.87;40.08;99756.09;5072128;28;20023;-76
2023/06/22 09:12:54;;;;;;;9.63;8.70;;;;;;;30.26;39.89;99818.28;5072444;28;20025;-77
2023/06/22 09:15:20;;;;;;;10.23;9.32;;;;;;;29.96;39.39;99756.22;5070342;28;20408;-77
2023/06/22 09:17:46;;;;;;;9.13;8.23;;;;;;;30.07;38.99;99771.28;5070805;28;20024;-76
2023/06/22 09:20:11;;;;;;;9.98;9.05;;;;;;;30.18;39.02;99761.81;5070024;28;20501;-76
2023/06/22 09:22:37;;;;;;;9.27;8.32;;;;;;;30.77;38.64;99824.69;5070695;28;20035;-76
2023/06/22 09:25:03;;;;;;;9.27;8.27;;;;;;;30.57;38.37;99765.94;5070907;28;20032;-76
2023/06/22 09:27:29;;;;;;;8.88;7.97;;;;;;;30.76;38.23;99744.03;5069002;28;20112;-77
2023/06/22 09:29:54;;;;;;;9.43;8.45;;;;;;;31.09;37.94;99774.63;5071413;28;20111;-75
2023/06/22 09:32:20;;;;;;;11.05;10.07;;;;;;;31.49;37.70;99806.47;5070920;28;20031;-76
2023/06/22 09:34:45;;;;;;;10.80;9.70;;;;;;;31.33;37.48;99749.84;5068554;28;20025;-76
2023/06/22 09:37:10;;;;;;;9.23;8.43;;;;;;;30.99;37.15;99680.22;5070369;28;21118;-77
2023/06/22 09:39:36;;;;;;;10.18;9.32;;;;;;;31.91;37.30;99815.25;5062910;28;20024;-77
2023/06/22 09:42:02;;;;;;;9.07;8.13;;;;;;;31.63;36.79;99746.34;5070709;28;20029;-77
2023/06/22 09:44:28;;;;;;;9.65;8.75;;;;;;;31.95;36.61;99767.09;5068804;28;20033;-77
2023/06/22 09:46:53;;;;;;;10.45;9.45;;;;;;;31.79;36.74;99758.50;5069007;28;20078;-77
2023/06/22 09:49:18;;;;;;;10.73;9.60;;;;;;;31.96;36.08;99766.00;5067515;28;20220;-76
2023/06/22 09:51:44;;;;;;;9.93;9.13;;;;;;;32.22;35.86;99796.16;5067976;28;20457;-76
2023/06/22 09:54:09;;;;;;;9.57;8.77;;;;;;;32.05;36.25;99755.91;5057737;28;20071;-77
2023/06/22 09:56:34;;;;;;;9.30;8.55;;;;;;;32.21;35.43;99756.28;5041422;28;20028;-76
2023/06/22 09:59:00;;;;;;;9.95;9.05;;;;;;;32.71;35.65;99813.41;5030227;28;20041;-77
2023/06/22 10:01:25;;;;;;;12.00;10.90;;;;;;;32.69;34.87;99761.75;5035978;28;20036;-77
2023/06/22 10:03:56;;;;;;;9.32;8.48;;;;;;;32.70;34.17;99749.72;5054417;28;20036;-76
2023/06/22 10:06:22;;;;;;;9.98;8.95;;;;;;;32.93;34.34;99755.06;5049143;28;20028;-76
2023/06/22 10:08:48;;;;;;;10.88;9.77;;;;;;;33.42;33.92;99801.13;5050553;28;20025;-77
2023/06/22 10:11:14;;;;;;;10.18;9.23;;;;;;;33.60;33.04;99798.38;5049542;28;20070;-77
2023/06/22 10:13:39;;;;;;;15.07;13.65;;;;;;;33.38;33.01;99750.06;5050059;28;20032;-78
2023/06/22 10:16:05;;;;;;;10.07;9.10;;;;;;;33.70;32.50;99767.91;5049707;28;20040;-77
2023/06/22 10:18:30;;;;;;;9.43;8.70;;;;;;;34.17;32.36;99800.81;5049477;28;20036;-77
2023/06/22 10:20:56;;;;;;;11.70;9.32;;;;;;;33.93;32.00;99732.91;5050818;28;20021;-76
2023/06/22 10:23:21;;;;;;;8.93;8.13;;;;;;;34.46;31.67;99797.34;5050533;28;20028;-75
2023/06/22 10:25:47;;;;;;;9.00;8.20;;;;;;;33.86;31.06;99691.53;5049481;28;20025;-76
2023/06/22 10:28:12;;;;;;;11.50;10.55;;;;;;;34.13;31.52;99728.63;5050981;28;20029;-76
2023/06/22 10:30:41;;;;;;;9.50;8.57;;;;;;;34.70;31.31;99794.78;5049626;28;20025;-76
2023/06/22 10:33:07;;;;;;;8.32;7.57;;;;;;;34.25;31.17;99743.25;5052400;28;20021;-75
2023/06/22 10:35:32;;;;;;;8.45;7.70;;;;;;;34.53;30.65;99771.03;5053516;28;20490;-76
2023/06/22 10:37:59;;;;;;;9.40;8.52;;;;;;;34.60;30.63;99778.72;5052130;28;20043;-77
2023/06/22 10:40:25;;;;;;;9.38;8.48;;;;;;;34.74;30.61;99780.06;5054264;28;20055;-77
2023/06/22 10:42:50;;;;;;;9.35;8.55;;;;;;;34.50;30.82;99719.59;5053480;28;20029;-76
2023/06/22 10:45:16;;;;;;;9.07;8.18;;;;;;;34.69;30.46;99705.41;5053857;28;20025;-77
2023/06/22 10:47:44;;;;;;;16.02;14.43;;;;;;;34.77;30.66;99681.78;5053193;28;20039;-77
2023/06/22 10:50:10;;;;;;;9.27;8.35;;;;;;;35.38;30.08;99772.69;5056386;28;20464;-77
2023/06/22 10:52:35;;;;;;;10.82;9.82;;;;;;;34.99;30.49;99769.31;5053772;28;20021;-75
2023/06/22 10:55:01;;;;;;;9.85;8.85;;;;;;;34.59;30.56;99750.50;5053601;28;20401;-77
2023/06/22 10:57:26;;;;;;;9.88;9.07;;;;;;;34.76;30.63;99763.28;5042625;28;20431;-75
2023/06/22 10:59:51;;;;;;;10.82;8.35;;;;;;;34.64;30.52;99705.63;5032650;28;20022;-77
2023/06/22 11:02:17;;;;;;;9.25;8.35;;;;;;;34.95;29.88;99755.44;5034275;28;20022;-76
2023/06/22 11:04:42;;;;;;;9.35;8.38;;;;;;;34.44;30.20;99692.69;5034263;28;20092;-75
2023/06/22 11:07:09;;;;;;;8.68;7.88;;;;;;;34.62;30.64;99757.25;5047078;28;20510;-78
2023/06/22 11:09:34;;;;;;;9.40;8.18;;;;;;;34.06;31.14;99702.53;5058125;28;20025;-77
2023/06/22 11:12:00;;;;;;;8.50;7.70;;;;;;;33.77;31.35;99707.97;5052692;28;20063;-77
2023/06/22 11:14:25;;;;;;;8.93;8.02;;;;;;;33.82;31.26;99739.88;5052677;28;20036;-76
2023/06/22 11:16:50;;;;;;;8.98;7.97;;;;;;;33.59;31.80;99709.16;5052328;28;20017;-75
2023/06/22 11:19:16;;;;;;;8.25;7.50;;;;;;;33.45;31.01;99704.69;5054024;28;20516;-74
2023/06/22 11:21:42;;;;;;;7.78;7.10;;;;;;;33.65;30.91;99748.91;5054753;28;20020;-76
2023/06/22 11:24:07;;;;;;;8.20;7.50;;;;;;;33.06;31.45;99669.28;5052278;28;20025;-77